Kakusyunmaru — JL6732 — position and weather

sailwx.info

Track history (hours):
 
Tides and Currents Weather Stations Pressure Air Temp Water Temp Dewpoint Dewpoint Depression Visibility Wind Speed Wind Dir Waves Ship Positions

Kakusyunmaru

Last reported at 2018-Feb-22 06:59 UTC. Time now 2018-Feb-22 07:20 UTC.
Position N 34°58' E 136°39'.

Length 103 m; draft 6.8 m.

Type: Tanker. MMSI: 431501785.

Date/timePositionNaut miles runAvg speedWind from/ knotsBaromVisibWave heightAir tempDewpointWater temp
2018-Feb-22 06:59N 34°58' E 136°39'0 0.0
2018-Feb-22 06:29N 34°58' E 136°39'0 0.0
2018-Feb-22 06:00N 34°58' E 136°39'0 0.0
2018-Feb-22 05:27N 34°58' E 136°39'0 0.0
2018-Feb-22 05:00N 34°58' E 136°39'0 0.0
2018-Feb-22 04:30N 34°58' E 136°39'0 0.0
2018-Feb-22 04:00N 34°58' E 136°39'0 0.0
2018-Feb-22 03:30N 34°58' E 136°39'0 0.0
2018-Feb-22 03:00N 34°58' E 136°39'0 0.0
2018-Feb-22 02:30N 34°58' E 136°39'0 0.0
2018-Feb-22 02:00N 34°58' E 136°39'0 0.0
2018-Feb-22 01:30N 34°58' E 136°39'0 0.0
2018-Feb-22 01:00N 34°58' E 136°39'2 4.7
2018-Feb-22 00:30N 34°57' E 136°41'0 0.0
2018-Feb-22 00:00N 34°57' E 136°41'0 0.0
2018-Feb-21 23:30N 34°57' E 136°41'0 0.0
2018-Feb-21 23:01N 34°57' E 136°41'510.3
2018-Feb-21 22:30N 34°52' E 136°44'712.9
2018-Feb-21 21:59N 34°46' E 136°48'4010.3
2018-Feb-21 18:02N 34°06' E 136°48'111.5
2018-Feb-21 17:57N 34°05' E 136°47'2512.8
2018-Feb-21 16:01N 33°49' E 136°24'313.8
2018-Feb-21 15:49N 33°47' E 136°22'5011.9
2018-Feb-21 11:35N 33°31' E 135°25'1713.4
2018-Feb-21 10:20N 33°42' E 135°10'513.6
2018-Feb-21 10:00N 33°46' E 135°07'713.6
2018-Feb-21 09:30N 33°51' E 135°02'713.6
2018-Feb-21 09:00N 33°58' E 134°60'714.3
2018-Feb-21 08:31N 34°05' E 134°59'714.1
2018-Feb-21 08:01N 34°12' E 134°59'714.8
2018-Feb-21 07:30N 34°19' E 134°59'713.7
2018-Feb-21 07:00N 34°25' E 135°04'713.8
2018-Feb-21 06:31N 34°29' E 135°10'713.0
2018-Feb-21 06:01N 34°33' E 135°17'612.6
2018-Feb-21 05:30N 34°36' E 135°23'3 5.8
2018-Feb-21 05:00N 34°35' E 135°26'0 0.1
2018-Feb-21 04:30N 34°35' E 135°26'0 0.1
2018-Feb-21 04:01N 34°35' E 135°26'0 0.0
2018-Feb-21 03:30N 34°35' E 135°26'0 0.0
2018-Feb-21 03:01N 34°35' E 135°26'0 0.0
2018-Feb-21 02:31N 34°35' E 135°26'0 0.0
2018-Feb-21 02:00N 34°35' E 135°26'0 0.0
2018-Feb-21 01:30N 34°35' E 135°26'0 0.0
2018-Feb-21 01:01N 34°35' E 135°26'0 0.1
2018-Feb-21 00:30N 34°35' E 135°26'0 0.1
2018-Feb-21 00:00N 34°35' E 135°26'3 5.4
2018-Feb-20 23:30N 34°36' E 135°23'1 2.7
2018-Feb-20 23:00N 34°35' E 135°22'0 0.0
2018-Feb-20 22:30N 34°35' E 135°22'0 0.1
2018-Feb-20 22:00N 34°35' E 135°22'0 0.0
2018-Feb-20 21:30N 34°35' E 135°22'0 0.0
2018-Feb-20 21:00N 34°35' E 135°22'0 0.0
2018-Feb-20 20:30N 34°35' E 135°22'0 0.0
2018-Feb-20 20:00N 34°35' E 135°22'0 0.0
2018-Feb-20 19:30N 34°35' E 135°22'0 0.0
2018-Feb-20 19:00N 34°35' E 135°22'0 0.0
2018-Feb-20 18:31N 34°35' E 135°22'0 0.0
2018-Feb-20 18:00N 34°35' E 135°22'0 0.0
2018-Feb-20 17:31N 34°35' E 135°22'0 0.0
2018-Feb-20 17:01N 34°35' E 135°22'0 0.0
2018-Feb-20 16:30N 34°35' E 135°22'0 0.0
2018-Feb-20 16:00N 34°35' E 135°22'0 0.0
2018-Feb-20 15:30N 34°35' E 135°22'0 0.0
2018-Feb-20 15:00N 34°35' E 135°22'0 0.0
2018-Feb-20 14:30N 34°35' E 135°22'0 0.0
2018-Feb-20 14:00N 34°35' E 135°22'0 0.0
2018-Feb-20 13:30N 34°35' E 135°22'0 0.0
2018-Feb-20 13:00N 34°35' E 135°22'0 0.1
2018-Feb-20 12:31N 34°35' E 135°22'1 1.1
2018-Feb-20 12:00N 34°35' E 135°22'611.3
2018-Feb-20 11:30N 34°31' E 135°16'612.3
2018-Feb-20 11:00N 34°27' E 135°11'612.3
2018-Feb-20 10:31N 34°23' E 135°06'611.9
2018-Feb-20 10:01N 34°19' E 135°01'510.5
2018-Feb-20 09:31N 34°14' E 134°60'612.3
2018-Feb-20 09:00N 34°07' E 134°60'612.3
2018-Feb-20 08:30N 34°01' E 135°00'612.1
2018-Feb-20 08:00N 33°55' E 135°01'18110.3
2018-Feb-19 14:29N 34°32' E 138°35'1311.6
2018-Feb-19 13:24N 34°33' E 138°50'411.3
2018-Feb-19 13:00N 34°33' E 138°56'711.9
2018-Feb-19 12:23N 34°38' E 139°03'512.5
2018-Feb-19 12:00N 34°41' E 139°07'612.6
2018-Feb-19 11:30N 34°45' E 139°13'1012.3
2018-Feb-19 10:39N 34°52' E 139°22'612.9
2018-Feb-19 10:10N 34°56' E 139°28'512.6
2018-Feb-19 09:48N 34°59' E 139°32'412.4
2018-Feb-19 09:29N 35°02' E 139°36'612.8
2018-Feb-19 09:00N 35°06' E 139°41'612.6
2018-Feb-19 08:30N 35°11' E 139°45'611.4
2018-Feb-19 08:00N 35°17' E 139°45'611.5
2018-Feb-19 07:30N 35°22' E 139°42'611.1
2018-Feb-19 07:00N 35°27' E 139°47'612.0
2018-Feb-19 06:28N 35°30' E 139°53'612.0
2018-Feb-19 06:01N 35°32' E 139°60'3 6.1
2018-Feb-19 05:30N 35°32' E 140°03'0 0.0
2018-Feb-19 05:00N 35°32' E 140°03'0 0.0
2018-Feb-19 04:30N 35°32' E 140°03'0 0.0
2018-Feb-19 04:00N 35°32' E 140°03'0 0.0
2018-Feb-19 03:31N 35°32' E 140°03'0 0.0
2018-Feb-19 03:00N 35°32' E 140°03'0 0.0
2018-Feb-19 02:30N 35°32' E 140°03'0 0.0
2018-Feb-19 02:00N 35°32' E 140°03'0 0.0
2018-Feb-19 01:30N 35°32' E 140°03'0 0.0
2018-Feb-19 01:01N 35°32' E 140°03'0 0.0
2018-Feb-19 00:31N 35°32' E 140°03'0 0.0
2018-Feb-19 00:00N 35°32' E 140°03'2 3.7
2018-Feb-18 23:31N 35°33' E 140°01'0 0.0
2018-Feb-18 23:00N 35°33' E 140°01'0 0.1
2018-Feb-18 22:30N 35°33' E 140°01'0 0.1
2018-Feb-18 22:00N 35°33' E 140°01'0 0.0
2018-Feb-18 21:31N 35°33' E 140°01'0 0.0
2018-Feb-18 21:00N 35°33' E 140°01'0 0.1
2018-Feb-18 20:30N 35°33' E 140°01'0 0.1
2018-Feb-18 20:01N 35°33' E 140°01'0 0.0
2018-Feb-18 19:31N 35°33' E 140°01'0 0.0
2018-Feb-18 19:00N 35°33' E 140°01'0 0.1
2018-Feb-18 18:30N 35°33' E 140°01'0 0.0
2018-Feb-18 18:00N 35°33' E 140°01'0 0.1
2018-Feb-18 17:30N 35°33' E 140°01'0 0.1
2018-Feb-18 17:01N 35°33' E 140°01'0 0.1
2018-Feb-18 16:31N 35°33' E 140°01'0 0.1
2018-Feb-18 16:00N 35°33' E 140°01'0 0.0
2018-Feb-18 15:30N 35°33' E 140°01'0 0.0
2018-Feb-18 15:01N 35°33' E 140°01'0 0.0
2018-Feb-18 14:30N 35°33' E 140°01'0 0.0
2018-Feb-18 14:00N 35°33' E 140°01'0 0.0
2018-Feb-18 13:31N 35°33' E 140°01'0 1.0
2018-Feb-18 13:00N 35°33' E 140°01'612.0
2018-Feb-18 12:30N 35°30' E 139°54'612.1
2018-Feb-18 12:01N 35°26' E 139°48'611.8
2018-Feb-18 11:31N 35°21' E 139°45'510.8
2018-Feb-18 11:00N 35°16' E 139°47'611.9
2018-Feb-18 10:30N 35°10' E 139°47'612.4
2018-Feb-18 10:00N 35°04' E 139°44'713.3
2018-Feb-18 09:30N 34°60' E 139°38'714.2
2018-Feb-18 08:59N 34°56' E 139°30'714.3
2018-Feb-18 08:30N 34°52' E 139°24'714.4
2018-Feb-18 08:00N 34°47' E 139°17'714.6
2018-Feb-18 07:30N 34°42' E 139°11'713.5
2018-Feb-18 07:00N 34°38' E 139°04'613.1
2018-Feb-18 06:30N 34°34' E 138°58'713.0
2018-Feb-18 06:00N 34°32' E 138°50'713.3
2018-Feb-18 05:30N 34°32' E 138°42'713.3
2018-Feb-18 05:00N 34°31' E 138°34'713.0
2018-Feb-18 04:30N 34°31' E 138°26'713.7
2018-Feb-18 04:00N 34°31' E 138°18'714.7
2018-Feb-18 03:29N 34°31' E 138°09'713.9
2018-Feb-18 03:00N 34°32' E 138°01'913.6
2018-Feb-18 02:20N 34°32' E 137°50'2113.4
2018-Feb-18 00:45N 34°32' E 137°24'413.6
2018-Feb-18 00:29N 34°32' E 137°19'713.8
2018-Feb-18 00:00N 34°32' E 137°12'714.0
2018-Feb-17 23:30N 34°32' E 137°03'712.8
2018-Feb-17 22:59N 34°36' E 136°56'611.8
2018-Feb-17 22:30N 34°39' E 136°51'612.0
2018-Feb-17 22:01N 34°44' E 136°47'612.1
2018-Feb-17 21:30N 34°50' E 136°44'4 8.3
2018-Feb-17 21:00N 34°54' E 136°41'0 0.1
2018-Feb-17 20:31N 34°53' E 136°41'0 0.0
2018-Feb-17 20:00N 34°53' E 136°41'0 0.0
2018-Feb-17 19:30N 34°53' E 136°41'0 0.0
2018-Feb-17 19:00N 34°53' E 136°41'0 0.0
2018-Feb-17 18:31N 34°53' E 136°41'0 0.0
2018-Feb-17 18:00N 34°53' E 136°41'0 0.0
2018-Feb-17 17:30N 34°53' E 136°41'0 0.1
2018-Feb-17 17:01N 34°53' E 136°41'0 0.1
2018-Feb-17 16:30N 34°53' E 136°41'0 0.0
2018-Feb-17 16:00N 34°53' E 136°41'0 0.1
2018-Feb-17 15:30N 34°53' E 136°41'0 0.1
2018-Feb-17 15:01N 34°53' E 136°41'0 0.0
2018-Feb-17 14:30N 34°53' E 136°41'0 0.0
2018-Feb-17 14:00N 34°53' E 136°41'0 0.0
2018-Feb-17 13:30N 34°53' E 136°41'0 0.0
2018-Feb-17 13:00N 34°53' E 136°41'0 0.0
2018-Feb-17 12:31N 34°53' E 136°41'0 0.0
2018-Feb-17 12:00N 34°53' E 136°41'0 0.0
2018-Feb-17 11:30N 34°53' E 136°41'2 4.2
2018-Feb-17 11:01N 34°55' E 136°41'3 6.4
2018-Feb-17 10:31N 34°58' E 136°39'0 0.0
2018-Feb-17 10:01N 34°58' E 136°39'0 0.0
2018-Feb-17 09:30N 34°58' E 136°39'0 0.0
2018-Feb-17 09:01N 34°58' E 136°39'0 0.0
2018-Feb-17 08:31N 34°58' E 136°39'0 0.0
2018-Feb-17 08:00N 34°58' E 136°39'0 0.0
2018-Feb-17 07:31N 34°58' E 136°39'0 0.0
2018-Feb-17 07:01N 34°58' E 136°39'0 0.0
2018-Feb-17 06:30N 34°58' E 136°39'0 0.8
2018-Feb-17 06:00N 34°58' E 136°39'3 5.3
2018-Feb-17 05:31N 34°56' E 136°42'5 9.9
2018-Feb-17 05:00N 34°52' E 136°44'611.4
2018-Feb-17 04:28N 34°46' E 136°47'8810.4
2018-Feb-16 19:57N 34°32' E 138°33'811.0
2018-Feb-16 19:11N 34°32' E 138°43'210.4
2018-Feb-16 18:59N 34°32' E 138°46'510.1
2018-Feb-16 18:29N 34°33' E 138°52'510.1
2018-Feb-16 18:00N 34°33' E 138°58'611.5
2018-Feb-16 17:29N 34°37' E 139°03'510.9
2018-Feb-16 17:01N 34°40' E 139°08'710.6
2018-Feb-16 16:18N 34°46' E 139°15'610.6
2018-Feb-16 15:45N 34°50' E 139°19'3 9.9
2018-Feb-16 15:26N 34°52' E 139°22'10 9.9
2018-Feb-16 14:25N 34°59' E 139°32'510.9
2018-Feb-16 13:57N 35°02' E 139°36'612.4
2018-Feb-16 13:30N 35°06' E 139°41'612.8
2018-Feb-16 13:00N 35°11' E 139°46'612.6
2018-Feb-16 12:30N 35°17' E 139°44'612.5
2018-Feb-16 12:00N 35°24' E 139°43'612.8
2018-Feb-16 11:30N 35°28' E 139°48'612.6
2018-Feb-16 11:00N 35°31' E 139°55'611.6
2018-Feb-16 10:30N 35°32' E 140°02'1 1.8
2018-Feb-16 10:01N 35°32' E 140°03'0 0.0
2018-Feb-16 09:30N 35°32' E 140°03'0 0.0
2018-Feb-16 09:01N 35°32' E 140°03'0 0.0
2018-Feb-16 08:30N 35°32' E 140°03'0 0.0
2018-Feb-16 08:00N 35°32' E 140°03'0 0.0
2018-Feb-16 07:30N 35°32' E 140°03'0 0.0
2018-Feb-16 07:01N 35°32' E 140°03'0 0.0
2018-Feb-16 06:30N 35°32' E 140°03'0 0.0
2018-Feb-16 06:00N 35°32' E 140°03'0 0.0
2018-Feb-16 05:31N 35°32' E 140°03'0 0.0
2018-Feb-16 05:00N 35°32' E 140°03'0 0.5
2018-Feb-16 04:31N 35°32' E 140°03'1 2.3
2018-Feb-16 04:01N 35°32' E 140°02'0 0.0
2018-Feb-16 03:31N 35°32' E 140°02'0 0.0
2018-Feb-16 03:01N 35°32' E 140°02'0 0.1
2018-Feb-16 02:30N 35°32' E 140°02'611.6
2018-Feb-16 02:00N 35°30' E 139°55'612.3
2018-Feb-16 01:30N 35°27' E 139°49'612.2
2018-Feb-16 01:00N 35°22' E 139°45'611.1
2018-Feb-16 00:31N 35°16' E 139°46'611.7
2018-Feb-16 00:00N 35°10' E 139°47'612.0
2018-Feb-15 23:30N 35°05' E 139°45'612.3
2018-Feb-15 23:01N 35°01' E 139°39'713.1
2018-Feb-15 22:30N 34°57' E 139°32'714.1
2018-Feb-15 22:00N 34°53' E 139°25'713.9
2018-Feb-15 21:30N 34°49' E 139°18'713.5
2018-Feb-15 20:58N 34°43' E 139°12'612.6
2018-Feb-15 20:30N 34°40' E 139°07'612.3
2018-Feb-15 20:00N 34°36' E 139°01'612.0
2018-Feb-15 19:30N 34°32' E 138°55'712.6
2018-Feb-15 18:59N 34°32' E 138°47'613.5
2018-Feb-15 18:30N 34°31' E 138°40'713.6
2018-Feb-15 17:59N 34°31' E 138°31'714.1
2018-Feb-15 17:29N 34°31' E 138°23'714.7
2018-Feb-15 17:00N 34°31' E 138°14'814.5
2018-Feb-15 16:29N 34°31' E 138°05'713.7
2018-Feb-15 16:00N 34°31' E 137°57'612.9
2018-Feb-15 15:30N 34°31' E 137°49'612.6
2018-Feb-15 15:00N 34°32' E 137°41'1413.0
2018-Feb-15 13:54N 34°32' E 137°24'513.5
2018-Feb-15 13:30N 34°32' E 137°17'913.5
2018-Feb-15 12:50N 34°32' E 137°06'514.0
2018-Feb-15 12:30N 34°33' E 137°01'713.9
2018-Feb-15 12:00N 34°37' E 136°54'713.6
2018-Feb-15 11:31N 34°42' E 136°49'713.6
2018-Feb-15 11:00N 34°48' E 136°45'713.3
2018-Feb-15 10:31N 34°54' E 136°42'4 8.5
2018-Feb-15 10:01N 34°58' E 136°39'0 0.0
2018-Feb-15 09:31N 34°58' E 136°39'0 0.0
2018-Feb-15 09:00N 34°58' E 136°39'0 0.0
2018-Feb-15 08:31N 34°58' E 136°39'0 0.0
2018-Feb-15 08:00N 34°58' E 136°39'0 0.0
2018-Feb-15 07:30N 34°58' E 136°39'0 0.0
2018-Feb-15 07:01N 34°58' E 136°39'0 0.0
2018-Feb-15 06:31N 34°58' E 136°39'0 0.0
2018-Feb-15 06:00N 34°58' E 136°39'1 2.3
2018-Feb-15 05:31N 34°57' E 136°40'510.0
2018-Feb-15 05:00N 34°53' E 136°43'812.6
2018-Feb-15 04:20N 34°45' E 136°48'2211.5
2018-Feb-15 02:24N 34°33' E 137°10'3612.0
2018-Feb-14 23:24N 34°32' E 137°54'611.8
2018-Feb-14 22:51N 34°32' E 138°02'2410.5
2018-Feb-14 20:34N 34°32' E 138°31'110.8
2018-Feb-14 20:27N 34°32' E 138°32'510.7
2018-Feb-14 19:57N 34°32' E 138°39'710.9
2018-Feb-14 19:21N 34°32' E 138°47'410.4
2018-Feb-14 19:00N 34°32' E 138°51'510.1
2018-Feb-14 18:31N 34°33' E 138°57'710.8
2018-Feb-14 17:52N 34°38' E 139°03'4 9.9
2018-Feb-14 17:31N 34°40' E 139°06'610.3
2018-Feb-14 16:57N 34°44' E 139°11'13 8.9
2018-Feb-14 15:33N 34°52' E 139°23'1 7.5
2018-Feb-14 15:27N 34°53' E 139°24'3 7.5
2018-Feb-14 14:59N 34°55' E 139°27'6 8.1
2018-Feb-14 14:11N 34°59' E 139°33'3 8.2
2018-Feb-14 13:52N 35°01' E 139°35'3 9.5
2018-Feb-14 13:30N 35°03' E 139°38'610.1
2018-Feb-14 12:57N 35°07' E 139°43'510.6
2018-Feb-14 12:31N 35°11' E 139°46'611.8
2018-Feb-14 12:00N 35°17' E 139°45'612.4
2018-Feb-14 11:30N 35°23' E 139°42'611.6
2018-Feb-14 11:00N 35°27' E 139°47'611.4
2018-Feb-14 10:30N 35°30' E 139°53'611.0
2018-Feb-14 10:00N 35°32' E 139°59'3 6.4
2018-Feb-14 09:30N 35°32' E 140°03'0 0.0
2018-Feb-14 09:00N 35°32' E 140°03'0 0.0
2018-Feb-14 08:30N 35°32' E 140°03'0 0.0
2018-Feb-14 08:00N 35°32' E 140°03'0 0.0
2018-Feb-14 07:30N 35°32' E 140°03'0 0.0
2018-Feb-14 06:59N 35°32' E 140°03'0 0.0
2018-Feb-14 06:30N 35°32' E 140°03'0 0.0
2018-Feb-14 06:00N 35°32' E 140°03'0 0.0
2018-Feb-14 05:30N 35°32' E 140°03'0 0.0
2018-Feb-14 05:00N 35°32' E 140°03'0 0.0
2018-Feb-14 04:30N 35°32' E 140°03'0 0.0
2018-Feb-14 04:00N 35°32' E 140°03'0 0.0
2018-Feb-14 03:31N 35°32' E 140°03'0 0.0
2018-Feb-14 03:00N 35°32' E 140°03'0 0.0
2018-Feb-14 02:30N 35°32' E 140°03'0 0.0
2018-Feb-14 02:00N 35°32' E 140°03'0 0.0
2018-Feb-14 01:30N 35°32' E 140°03'0 0.0
2018-Feb-14 01:01N 35°32' E 140°03'0 0.0
2018-Feb-14 00:30N 35°32' E 140°03'0 0.0
2018-Feb-14 00:00N 35°32' E 140°03'1 1.5
2018-Feb-13 23:30N 35°32' E 140°02'3 5.9
2018-Feb-13 23:01N 35°32' E 139°59'611.2
2018-Feb-13 22:30N 35°29' E 139°53'612.3
2018-Feb-13 22:00N 35°25' E 139°47'612.0
2018-Feb-13 21:30N 35°20' E 139°44'611.4
2018-Feb-13 21:00N 35°14' E 139°47'612.5
2018-Feb-13 20:30N 35°08' E 139°46'611.8
2018-Feb-13 20:00N 35°03' E 139°43'612.7
2018-Feb-13 19:30N 34°59' E 139°37'713.9
2018-Feb-13 19:00N 34°55' E 139°30'714.1
2018-Feb-13 18:30N 34°51' E 139°23'714.0
2018-Feb-13 17:58N 34°46' E 139°16'714.3
2018-Feb-13 17:29N 34°41' E 139°10'713.7
2018-Feb-13 17:00N 34°37' E 139°04'612.4
2018-Feb-13 16:30N 34°33' E 138°58'713.2
2018-Feb-13 16:00N 34°31' E 138°50'1113.5
2018-Feb-13 15:11N 34°31' E 138°37'213.0
2018-Feb-13 15:00N 34°31' E 138°34'612.5
2018-Feb-13 14:30N 34°31' E 138°27'612.4
2018-Feb-13 14:00N 34°31' E 138°19'813.3
2018-Feb-13 13:22N 34°31' E 138°09'613.0
2018-Feb-13 12:56N 34°31' E 138°02'612.5
2018-Feb-13 12:28N 34°31' E 137°55'612.2
2018-Feb-13 11:58N 34°31' E 137°47'1912.7
2018-Feb-13 10:28N 34°32' E 137°24'613.2
2018-Feb-13 10:00N 34°32' E 137°17'713.4
2018-Feb-13 09:30N 34°32' E 137°09'613.0
2018-Feb-13 09:00N 34°33' E 137°01'613.0
2018-Feb-13 08:30N 34°37' E 136°55'612.4
2018-Feb-13 08:00N 34°41' E 136°49'612.7
2018-Feb-13 07:30N 34°47' E 136°46'612.7
2018-Feb-13 07:00N 34°53' E 136°43'511.0
2018-Feb-13 06:30N 34°57' E 136°39'1 1.8
2018-Feb-13 06:00N 34°58' E 136°39'0 0.0
2018-Feb-13 05:30N 34°58' E 136°39'0 0.0
2018-Feb-13 05:00N 34°58' E 136°39'0 0.0
2018-Feb-13 04:30N 34°58' E 136°39'0 0.0
2018-Feb-13 04:00N 34°58' E 136°39'0 0.0
2018-Feb-13 03:30N 34°58' E 136°39'0 0.0
2018-Feb-13 02:59N 34°58' E 136°39'0 0.0
2018-Feb-13 02:30N 34°58' E 136°39'0 0.0
2018-Feb-13 02:00N 34°58' E 136°39'0 0.0
2018-Feb-13 01:30N 34°58' E 136°39'0 0.0
2018-Feb-13 01:00N 34°58' E 136°39'0 0.0
2018-Feb-13 00:30N 34°58' E 136°39'0 0.0
2018-Feb-13 00:00N 34°58' E 136°39'0 0.0
2018-Feb-12 23:30N 34°58' E 136°39'1 3.0
2018-Feb-12 23:00N 34°57' E 136°40'1 2.1
2018-Feb-12 22:30N 34°57' E 136°41'0 0.0
2018-Feb-12 21:59N 34°57' E 136°41'0 0.0
2018-Feb-12 21:30N 34°57' E 136°41'0 0.0
2018-Feb-12 21:00N 34°57' E 136°41'0 0.0
2018-Feb-12 20:30N 34°57' E 136°41'0 0.0
2018-Feb-12 20:00N 34°57' E 136°41'0 0.0
2018-Feb-12 19:30N 34°57' E 136°41'0 0.0
2018-Feb-12 19:00N 34°57' E 136°41'0 0.1
2018-Feb-12 18:30N 34°57' E 136°41'0 0.1
2018-Feb-12 18:00N 34°57' E 136°41'0 0.0
2018-Feb-12 17:30N 34°57' E 136°41'0 0.0
2018-Feb-12 17:00N 34°57' E 136°41'0 0.0
2018-Feb-12 16:30N 34°57' E 136°41'0 0.0
2018-Feb-12 16:00N 34°57' E 136°41'0 0.0
2018-Feb-12 15:30N 34°57' E 136°41'0 0.0
2018-Feb-12 14:59N 34°57' E 136°41'0 0.0
2018-Feb-12 14:30N 34°57' E 136°41'0 0.1
2018-Feb-12 14:00N 34°57' E 136°41'0 0.0
2018-Feb-12 13:30N 34°57' E 136°41'0 0.0
2018-Feb-12 13:00N 34°57' E 136°41'0 0.1
2018-Feb-12 12:30N 34°57' E 136°41'0 0.2
2018-Feb-12 12:00N 34°57' E 136°41'0 0.1
2018-Feb-12 11:30N 34°57' E 136°41'0 0.1
2018-Feb-12 11:00N 34°57' E 136°41'0 0.0
2018-Feb-12 10:30N 34°57' E 136°41'2 3.7
2018-Feb-12 10:00N 34°58' E 136°39'0 0.1
2018-Feb-12 09:30N 34°58' E 136°39'0 0.0
2018-Feb-12 09:00N 34°58' E 136°39'0 0.0
2018-Feb-12 08:30N 34°58' E 136°39'0 0.0
2018-Feb-12 07:59N 34°58' E 136°39'0 0.0
2018-Feb-12 07:30N 34°58' E 136°39'0 0.0
2018-Feb-12 07:00N 34°58' E 136°39'  
Track history (hours):
 
Tides and Currents Weather Stations Pressure Air Temp Water Temp Dewpoint Dewpoint Depression Visibility Wind Speed Wind Dir Waves Ship Positions

Kakusyunmaru

Last reported at 2018-Feb-22 06:59 UTC. Time now 2018-Feb-22 07:21 UTC.
Position N 34°58' E 136°39'.

Length 103 m; draft 6.8 m.

Type: Tanker. MMSI: 431501785.

Date/timePositionNaut miles runAvg speedWind from/ knotsBaromVisibWave heightAir tempDewpointWater temp
2018-Feb-22 06:59N 34°58' E 136°39'0 0.0
2018-Feb-22 06:29N 34°58' E 136°39'0 0.0
2018-Feb-22 06:00N 34°58' E 136°39'0 0.0
2018-Feb-22 05:27N 34°58' E 136°39'0 0.0
2018-Feb-22 05:00N 34°58' E 136°39'0 0.0
2018-Feb-22 04:30N 34°58' E 136°39'0 0.0
2018-Feb-22 04:00N 34°58' E 136°39'0 0.0
2018-Feb-22 03:30N 34°58' E 136°39'0 0.0
2018-Feb-22 03:00N 34°58' E 136°39'0 0.0
2018-Feb-22 02:30N 34°58' E 136°39'0 0.0
2018-Feb-22 02:00N 34°58' E 136°39'0 0.0
2018-Feb-22 01:30N 34°58' E 136°39'0 0.0
2018-Feb-22 01:00N 34°58' E 136°39'2 4.7
2018-Feb-22 00:30N 34°57' E 136°41'0 0.0
2018-Feb-22 00:00N 34°57' E 136°41'0 0.0
2018-Feb-21 23:30N 34°57' E 136°41'0 0.0
2018-Feb-21 23:01N 34°57' E 136°41'510.3
2018-Feb-21 22:30N 34°52' E 136°44'712.9
2018-Feb-21 21:59N 34°46' E 136°48'4010.3
2018-Feb-21 18:02N 34°06' E 136°48'111.5
2018-Feb-21 17:57N 34°05' E 136°47'2512.8
2018-Feb-21 16:01N 33°49' E 136°24'313.8
2018-Feb-21 15:49N 33°47' E 136°22'5011.9
2018-Feb-21 11:35N 33°31' E 135°25'1713.4
2018-Feb-21 10:20N 33°42' E 135°10'513.6
2018-Feb-21 10:00N 33°46' E 135°07'713.6
2018-Feb-21 09:30N 33°51' E 135°02'713.6
2018-Feb-21 09:00N 33°58' E 134°60'714.3
2018-Feb-21 08:31N 34°05' E 134°59'714.1
2018-Feb-21 08:01N 34°12' E 134°59'714.8
2018-Feb-21 07:30N 34°19' E 134°59'713.7
2018-Feb-21 07:00N 34°25' E 135°04'713.8
2018-Feb-21 06:31N 34°29' E 135°10'713.0
2018-Feb-21 06:01N 34°33' E 135°17'612.6
2018-Feb-21 05:30N 34°36' E 135°23'3 5.8
2018-Feb-21 05:00N 34°35' E 135°26'0 0.1
2018-Feb-21 04:30N 34°35' E 135°26'0 0.1
2018-Feb-21 04:01N 34°35' E 135°26'0 0.0
2018-Feb-21 03:30N 34°35' E 135°26'0 0.0
2018-Feb-21 03:01N 34°35' E 135°26'0 0.0
2018-Feb-21 02:31N 34°35' E 135°26'0 0.0
2018-Feb-21 02:00N 34°35' E 135°26'0 0.0
2018-Feb-21 01:30N 34°35' E 135°26'0 0.0
2018-Feb-21 01:01N 34°35' E 135°26'0 0.1
2018-Feb-21 00:30N 34°35' E 135°26'0 0.1
2018-Feb-21 00:00N 34°35' E 135°26'3 5.4
2018-Feb-20 23:30N 34°36' E 135°23'1 2.7
2018-Feb-20 23:00N 34°35' E 135°22'0 0.0
2018-Feb-20 22:30N 34°35' E 135°22'0 0.1
2018-Feb-20 22:00N 34°35' E 135°22'0 0.0
2018-Feb-20 21:30N 34°35' E 135°22'0 0.0
2018-Feb-20 21:00N 34°35' E 135°22'0 0.0
2018-Feb-20 20:30N 34°35' E 135°22'0 0.0
2018-Feb-20 20:00N 34°35' E 135°22'0 0.0
2018-Feb-20 19:30N 34°35' E 135°22'0 0.0
2018-Feb-20 19:00N 34°35' E 135°22'0 0.0
2018-Feb-20 18:31N 34°35' E 135°22'0 0.0
2018-Feb-20 18:00N 34°35' E 135°22'0 0.0
2018-Feb-20 17:31N 34°35' E 135°22'0 0.0
2018-Feb-20 17:01N 34°35' E 135°22'0 0.0
2018-Feb-20 16:30N 34°35' E 135°22'0 0.0
2018-Feb-20 16:00N 34°35' E 135°22'0 0.0
2018-Feb-20 15:30N 34°35' E 135°22'0 0.0
2018-Feb-20 15:00N 34°35' E 135°22'0 0.0
2018-Feb-20 14:30N 34°35' E 135°22'0 0.0
2018-Feb-20 14:00N 34°35' E 135°22'0 0.0
2018-Feb-20 13:30N 34°35' E 135°22'0 0.0
2018-Feb-20 13:00N 34°35' E 135°22'0 0.1
2018-Feb-20 12:31N 34°35' E 135°22'1 1.1
2018-Feb-20 12:00N 34°35' E 135°22'611.3
2018-Feb-20 11:30N 34°31' E 135°16'612.3
2018-Feb-20 11:00N 34°27' E 135°11'612.3
2018-Feb-20 10:31N 34°23' E 135°06'611.9
2018-Feb-20 10:01N 34°19' E 135°01'510.5
2018-Feb-20 09:31N 34°14' E 134°60'612.3
2018-Feb-20 09:00N 34°07' E 134°60'612.3
2018-Feb-20 08:30N 34°01' E 135°00'612.1
2018-Feb-20 08:00N 33°55' E 135°01'18110.3
2018-Feb-19 14:29N 34°32' E 138°35'1311.6
2018-Feb-19 13:24N 34°33' E 138°50'411.3
2018-Feb-19 13:00N 34°33' E 138°56'711.9
2018-Feb-19 12:23N 34°38' E 139°03'512.5
2018-Feb-19 12:00N 34°41' E 139°07'612.6
2018-Feb-19 11:30N 34°45' E 139°13'1012.3
2018-Feb-19 10:39N 34°52' E 139°22'612.9
2018-Feb-19 10:10N 34°56' E 139°28'512.6
2018-Feb-19 09:48N 34°59' E 139°32'412.4
2018-Feb-19 09:29N 35°02' E 139°36'612.8
2018-Feb-19 09:00N 35°06' E 139°41'612.6
2018-Feb-19 08:30N 35°11' E 139°45'611.4
2018-Feb-19 08:00N 35°17' E 139°45'611.5
2018-Feb-19 07:30N 35°22' E 139°42'611.1
2018-Feb-19 07:00N 35°27' E 139°47'612.0
2018-Feb-19 06:28N 35°30' E 139°53'612.0
2018-Feb-19 06:01N 35°32' E 139°60'3 6.1
2018-Feb-19 05:30N 35°32' E 140°03'0 0.0
2018-Feb-19 05:00N 35°32' E 140°03'0 0.0
2018-Feb-19 04:30N 35°32' E 140°03'0 0.0
2018-Feb-19 04:00N 35°32' E 140°03'0 0.0
2018-Feb-19 03:31N 35°32' E 140°03'0 0.0
2018-Feb-19 03:00N 35°32' E 140°03'0 0.0
2018-Feb-19 02:30N 35°32' E 140°03'0 0.0
2018-Feb-19 02:00N 35°32' E 140°03'0 0.0
2018-Feb-19 01:30N 35°32' E 140°03'0 0.0
2018-Feb-19 01:01N 35°32' E 140°03'0 0.0
2018-Feb-19 00:31N 35°32' E 140°03'0 0.0
2018-Feb-19 00:00N 35°32' E 140°03'2 3.7
2018-Feb-18 23:31N 35°33' E 140°01'0 0.0
2018-Feb-18 23:00N 35°33' E 140°01'0 0.1
2018-Feb-18 22:30N 35°33' E 140°01'0 0.1
2018-Feb-18 22:00N 35°33' E 140°01'0 0.0
2018-Feb-18 21:31N 35°33' E 140°01'0 0.0
2018-Feb-18 21:00N 35°33' E 140°01'0 0.1
2018-Feb-18 20:30N 35°33' E 140°01'0 0.1
2018-Feb-18 20:01N 35°33' E 140°01'0 0.0
2018-Feb-18 19:31N 35°33' E 140°01'0 0.0
2018-Feb-18 19:00N 35°33' E 140°01'0 0.1
2018-Feb-18 18:30N 35°33' E 140°01'0 0.0
2018-Feb-18 18:00N 35°33' E 140°01'0 0.1
2018-Feb-18 17:30N 35°33' E 140°01'0 0.1
2018-Feb-18 17:01N 35°33' E 140°01'0 0.1
2018-Feb-18 16:31N 35°33' E 140°01'0 0.1
2018-Feb-18 16:00N 35°33' E 140°01'0 0.0
2018-Feb-18 15:30N 35°33' E 140°01'0 0.0
2018-Feb-18 15:01N 35°33' E 140°01'0 0.0
2018-Feb-18 14:30N 35°33' E 140°01'0 0.0
2018-Feb-18 14:00N 35°33' E 140°01'0 0.0
2018-Feb-18 13:31N 35°33' E 140°01'0 1.0
2018-Feb-18 13:00N 35°33' E 140°01'612.0
2018-Feb-18 12:30N 35°30' E 139°54'612.1
2018-Feb-18 12:01N 35°26' E 139°48'611.8
2018-Feb-18 11:31N 35°21' E 139°45'510.8
2018-Feb-18 11:00N 35°16' E 139°47'611.9
2018-Feb-18 10:30N 35°10' E 139°47'612.4
2018-Feb-18 10:00N 35°04' E 139°44'713.3
2018-Feb-18 09:30N 34°60' E 139°38'714.2
2018-Feb-18 08:59N 34°56' E 139°30'714.3
2018-Feb-18 08:30N 34°52' E 139°24'714.4
2018-Feb-18 08:00N 34°47' E 139°17'714.6
2018-Feb-18 07:30N 34°42' E 139°11'713.5
2018-Feb-18 07:00N 34°38' E 139°04'613.1
2018-Feb-18 06:30N 34°34' E 138°58'713.0
2018-Feb-18 06:00N 34°32' E 138°50'713.3
2018-Feb-18 05:30N 34°32' E 138°42'713.3
2018-Feb-18 05:00N 34°31' E 138°34'713.0
2018-Feb-18 04:30N 34°31' E 138°26'713.7
2018-Feb-18 04:00N 34°31' E 138°18'714.7
2018-Feb-18 03:29N 34°31' E 138°09'713.9
2018-Feb-18 03:00N 34°32' E 138°01'913.6
2018-Feb-18 02:20N 34°32' E 137°50'2113.4
2018-Feb-18 00:45N 34°32' E 137°24'413.6
2018-Feb-18 00:29N 34°32' E 137°19'713.8
2018-Feb-18 00:00N 34°32' E 137°12'714.0
2018-Feb-17 23:30N 34°32' E 137°03'712.8
2018-Feb-17 22:59N 34°36' E 136°56'611.8
2018-Feb-17 22:30N 34°39' E 136°51'612.0
2018-Feb-17 22:01N 34°44' E 136°47'612.1
2018-Feb-17 21:30N 34°50' E 136°44'4 8.3
2018-Feb-17 21:00N 34°54' E 136°41'0 0.1
2018-Feb-17 20:31N 34°53' E 136°41'0 0.0
2018-Feb-17 20:00N 34°53' E 136°41'0 0.0
2018-Feb-17 19:30N 34°53' E 136°41'0 0.0
2018-Feb-17 19:00N 34°53' E 136°41'0 0.0
2018-Feb-17 18:31N 34°53' E 136°41'0 0.0
2018-Feb-17 18:00N 34°53' E 136°41'0 0.0
2018-Feb-17 17:30N 34°53' E 136°41'0 0.1
2018-Feb-17 17:01N 34°53' E 136°41'0 0.1
2018-Feb-17 16:30N 34°53' E 136°41'0 0.0
2018-Feb-17 16:00N 34°53' E 136°41'0 0.1
2018-Feb-17 15:30N 34°53' E 136°41'0 0.1
2018-Feb-17 15:01N 34°53' E 136°41'0 0.0
2018-Feb-17 14:30N 34°53' E 136°41'0 0.0
2018-Feb-17 14:00N 34°53' E 136°41'0 0.0
2018-Feb-17 13:30N 34°53' E 136°41'0 0.0
2018-Feb-17 13:00N 34°53' E 136°41'0 0.0
2018-Feb-17 12:31N 34°53' E 136°41'0 0.0
2018-Feb-17 12:00N 34°53' E 136°41'0 0.0
2018-Feb-17 11:30N 34°53' E 136°41'2 4.2
2018-Feb-17 11:01N 34°55' E 136°41'3 6.4
2018-Feb-17 10:31N 34°58' E 136°39'0 0.0
2018-Feb-17 10:01N 34°58' E 136°39'0 0.0
2018-Feb-17 09:30N 34°58' E 136°39'0 0.0
2018-Feb-17 09:01N 34°58' E 136°39'0 0.0
2018-Feb-17 08:31N 34°58' E 136°39'0 0.0
2018-Feb-17 08:00N 34°58' E 136°39'0 0.0
2018-Feb-17 07:31N 34°58' E 136°39'0 0.0
2018-Feb-17 07:01N 34°58' E 136°39'0 0.0
2018-Feb-17 06:30N 34°58' E 136°39'0 0.8
2018-Feb-17 06:00N 34°58' E 136°39'3 5.3
2018-Feb-17 05:31N 34°56' E 136°42'5 9.9
2018-Feb-17 05:00N 34°52' E 136°44'611.4
2018-Feb-17 04:28N 34°46' E 136°47'8810.4
2018-Feb-16 19:57N 34°32' E 138°33'811.0
2018-Feb-16 19:11N 34°32' E 138°43'210.4
2018-Feb-16 18:59N 34°32' E 138°46'510.1
2018-Feb-16 18:29N 34°33' E 138°52'510.1
2018-Feb-16 18:00N 34°33' E 138°58'611.5
2018-Feb-16 17:29N 34°37' E 139°03'510.9
2018-Feb-16 17:01N 34°40' E 139°08'710.6
2018-Feb-16 16:18N 34°46' E 139°15'610.6
2018-Feb-16 15:45N 34°50' E 139°19'3 9.9
2018-Feb-16 15:26N 34°52' E 139°22'10 9.9
2018-Feb-16 14:25N 34°59' E 139°32'510.9
2018-Feb-16 13:57N 35°02' E 139°36'612.4
2018-Feb-16 13:30N 35°06' E 139°41'612.8
2018-Feb-16 13:00N 35°11' E 139°46'612.6
2018-Feb-16 12:30N 35°17' E 139°44'612.5
2018-Feb-16 12:00N 35°24' E 139°43'612.8
2018-Feb-16 11:30N 35°28' E 139°48'612.6
2018-Feb-16 11:00N 35°31' E 139°55'611.6
2018-Feb-16 10:30N 35°32' E 140°02'1 1.8
2018-Feb-16 10:01N 35°32' E 140°03'0 0.0
2018-Feb-16 09:30N 35°32' E 140°03'0 0.0
2018-Feb-16 09:01N 35°32' E 140°03'0 0.0
2018-Feb-16 08:30N 35°32' E 140°03'0 0.0
2018-Feb-16 08:00N 35°32' E 140°03'0 0.0
2018-Feb-16 07:30N 35°32' E 140°03'0 0.0
2018-Feb-16 07:01N 35°32' E 140°03'0 0.0
2018-Feb-16 06:30N 35°32' E 140°03'0 0.0
2018-Feb-16 06:00N 35°32' E 140°03'0 0.0
2018-Feb-16 05:31N 35°32' E 140°03'0 0.0
2018-Feb-16 05:00N 35°32' E 140°03'0 0.5
2018-Feb-16 04:31N 35°32' E 140°03'1 2.3
2018-Feb-16 04:01N 35°32' E 140°02'0 0.0
2018-Feb-16 03:31N 35°32' E 140°02'0 0.0
2018-Feb-16 03:01N 35°32' E 140°02'0 0.1
2018-Feb-16 02:30N 35°32' E 140°02'611.6
2018-Feb-16 02:00N 35°30' E 139°55'612.3
2018-Feb-16 01:30N 35°27' E 139°49'612.2
2018-Feb-16 01:00N 35°22' E 139°45'611.1
2018-Feb-16 00:31N 35°16' E 139°46'611.7
2018-Feb-16 00:00N 35°10' E 139°47'612.0
2018-Feb-15 23:30N 35°05' E 139°45'612.3
2018-Feb-15 23:01N 35°01' E 139°39'713.1
2018-Feb-15 22:30N 34°57' E 139°32'714.1
2018-Feb-15 22:00N 34°53' E 139°25'713.9
2018-Feb-15 21:30N 34°49' E 139°18'713.5
2018-Feb-15 20:58N 34°43' E 139°12'612.6
2018-Feb-15 20:30N 34°40' E 139°07'612.3
2018-Feb-15 20:00N 34°36' E 139°01'612.0
2018-Feb-15 19:30N 34°32' E 138°55'712.6
2018-Feb-15 18:59N 34°32' E 138°47'613.5
2018-Feb-15 18:30N 34°31' E 138°40'713.6
2018-Feb-15 17:59N 34°31' E 138°31'714.1
2018-Feb-15 17:29N 34°31' E 138°23'714.7
2018-Feb-15 17:00N 34°31' E 138°14'814.5
2018-Feb-15 16:29N 34°31' E 138°05'713.7
2018-Feb-15 16:00N 34°31' E 137°57'612.9
2018-Feb-15 15:30N 34°31' E 137°49'612.6
2018-Feb-15 15:00N 34°32' E 137°41'1413.0
2018-Feb-15 13:54N 34°32' E 137°24'513.5
2018-Feb-15 13:30N 34°32' E 137°17'913.5
2018-Feb-15 12:50N 34°32' E 137°06'514.0
2018-Feb-15 12:30N 34°33' E 137°01'713.9
2018-Feb-15 12:00N 34°37' E 136°54'713.6
2018-Feb-15 11:31N 34°42' E 136°49'713.6
2018-Feb-15 11:00N 34°48' E 136°45'713.3
2018-Feb-15 10:31N 34°54' E 136°42'4 8.5
2018-Feb-15 10:01N 34°58' E 136°39'0 0.0
2018-Feb-15 09:31N 34°58' E 136°39'0 0.0
2018-Feb-15 09:00N 34°58' E 136°39'0 0.0
2018-Feb-15 08:31N 34°58' E 136°39'0 0.0
2018-Feb-15 08:00N 34°58' E 136°39'0 0.0
2018-Feb-15 07:30N 34°58' E 136°39'0 0.0
2018-Feb-15 07:01N 34°58' E 136°39'0 0.0
2018-Feb-15 06:31N 34°58' E 136°39'0 0.0
2018-Feb-15 06:00N 34°58' E 136°39'1 2.3
2018-Feb-15 05:31N 34°57' E 136°40'510.0
2018-Feb-15 05:00N 34°53' E 136°43'812.6
2018-Feb-15 04:20N 34°45' E 136°48'2211.5
2018-Feb-15 02:24N 34°33' E 137°10'3612.0
2018-Feb-14 23:24N 34°32' E 137°54'611.8
2018-Feb-14 22:51N 34°32' E 138°02'2410.5
2018-Feb-14 20:34N 34°32' E 138°31'110.8
2018-Feb-14 20:27N 34°32' E 138°32'510.7
2018-Feb-14 19:57N 34°32' E 138°39'710.9
2018-Feb-14 19:21N 34°32' E 138°47'410.4
2018-Feb-14 19:00N 34°32' E 138°51'510.1
2018-Feb-14 18:31N 34°33' E 138°57'710.8
2018-Feb-14 17:52N 34°38' E 139°03'4 9.9
2018-Feb-14 17:31N 34°40' E 139°06'610.3
2018-Feb-14 16:57N 34°44' E 139°11'13 8.9
2018-Feb-14 15:33N 34°52' E 139°23'1 7.5
2018-Feb-14 15:27N 34°53' E 139°24'3 7.5
2018-Feb-14 14:59N 34°55' E 139°27'6 8.1
2018-Feb-14 14:11N 34°59' E 139°33'3 8.2
2018-Feb-14 13:52N 35°01' E 139°35'3 9.5
2018-Feb-14 13:30N 35°03' E 139°38'610.1
2018-Feb-14 12:57N 35°07' E 139°43'510.6
2018-Feb-14 12:31N 35°11' E 139°46'611.8
2018-Feb-14 12:00N 35°17' E 139°45'612.4
2018-Feb-14 11:30N 35°23' E 139°42'611.6
2018-Feb-14 11:00N 35°27' E 139°47'611.4
2018-Feb-14 10:30N 35°30' E 139°53'611.0
2018-Feb-14 10:00N 35°32' E 139°59'3 6.4
2018-Feb-14 09:30N 35°32' E 140°03'0 0.0
2018-Feb-14 09:00N 35°32' E 140°03'0 0.0
2018-Feb-14 08:30N 35°32' E 140°03'0 0.0
2018-Feb-14 08:00N 35°32' E 140°03'0 0.0
2018-Feb-14 07:30N 35°32' E 140°03'0 0.0
2018-Feb-14 06:59N 35°32' E 140°03'0 0.0
2018-Feb-14 06:30N 35°32' E 140°03'0 0.0
2018-Feb-14 06:00N 35°32' E 140°03'0 0.0
2018-Feb-14 05:30N 35°32' E 140°03'0 0.0
2018-Feb-14 05:00N 35°32' E 140°03'0 0.0
2018-Feb-14 04:30N 35°32' E 140°03'0 0.0
2018-Feb-14 04:00N 35°32' E 140°03'0 0.0
2018-Feb-14 03:31N 35°32' E 140°03'0 0.0
2018-Feb-14 03:00N 35°32' E 140°03'0 0.0
2018-Feb-14 02:30N 35°32' E 140°03'0 0.0
2018-Feb-14 02:00N 35°32' E 140°03'0 0.0
2018-Feb-14 01:30N 35°32' E 140°03'0 0.0
2018-Feb-14 01:01N 35°32' E 140°03'0 0.0
2018-Feb-14 00:30N 35°32' E 140°03'0 0.0
2018-Feb-14 00:00N 35°32' E 140°03'1 1.5
2018-Feb-13 23:30N 35°32' E 140°02'3 5.9
2018-Feb-13 23:01N 35°32' E 139°59'611.2
2018-Feb-13 22:30N 35°29' E 139°53'612.3
2018-Feb-13 22:00N 35°25' E 139°47'612.0
2018-Feb-13 21:30N 35°20' E 139°44'611.4
2018-Feb-13 21:00N 35°14' E 139°47'612.5
2018-Feb-13 20:30N 35°08' E 139°46'611.8
2018-Feb-13 20:00N 35°03' E 139°43'612.7
2018-Feb-13 19:30N 34°59' E 139°37'713.9
2018-Feb-13 19:00N 34°55' E 139°30'714.1
2018-Feb-13 18:30N 34°51' E 139°23'714.0
2018-Feb-13 17:58N 34°46' E 139°16'714.3
2018-Feb-13 17:29N 34°41' E 139°10'713.7
2018-Feb-13 17:00N 34°37' E 139°04'612.4
2018-Feb-13 16:30N 34°33' E 138°58'713.2
2018-Feb-13 16:00N 34°31' E 138°50'1113.5
2018-Feb-13 15:11N 34°31' E 138°37'213.0
2018-Feb-13 15:00N 34°31' E 138°34'612.5
2018-Feb-13 14:30N 34°31' E 138°27'612.4
2018-Feb-13 14:00N 34°31' E 138°19'813.3
2018-Feb-13 13:22N 34°31' E 138°09'613.0
2018-Feb-13 12:56N 34°31' E 138°02'612.5
2018-Feb-13 12:28N 34°31' E 137°55'612.2
2018-Feb-13 11:58N 34°31' E 137°47'1912.7
2018-Feb-13 10:28N 34°32' E 137°24'613.2
2018-Feb-13 10:00N 34°32' E 137°17'713.4
2018-Feb-13 09:30N 34°32' E 137°09'613.0
2018-Feb-13 09:00N 34°33' E 137°01'613.0
2018-Feb-13 08:30N 34°37' E 136°55'612.4
2018-Feb-13 08:00N 34°41' E 136°49'612.7
2018-Feb-13 07:30N 34°47' E 136°46'612.7
2018-Feb-13 07:00N 34°53' E 136°43'511.0
2018-Feb-13 06:30N 34°57' E 136°39'1 1.8
2018-Feb-13 06:00N 34°58' E 136°39'0 0.0
2018-Feb-13 05:30N 34°58' E 136°39'0 0.0
2018-Feb-13 05:00N 34°58' E 136°39'0 0.0
2018-Feb-13 04:30N 34°58' E 136°39'0 0.0
2018-Feb-13 04:00N 34°58' E 136°39'0 0.0
2018-Feb-13 03:30N 34°58' E 136°39'0 0.0
2018-Feb-13 02:59N 34°58' E 136°39'0 0.0
2018-Feb-13 02:30N 34°58' E 136°39'0 0.0
2018-Feb-13 02:00N 34°58' E 136°39'0 0.0
2018-Feb-13 01:30N 34°58' E 136°39'0 0.0
2018-Feb-13 01:00N 34°58' E 136°39'0 0.0
2018-Feb-13 00:30N 34°58' E 136°39'0 0.0
2018-Feb-13 00:00N 34°58' E 136°39'0 0.0
2018-Feb-12 23:30N 34°58' E 136°39'1 3.0
2018-Feb-12 23:00N 34°57' E 136°40'1 2.1
2018-Feb-12 22:30N 34°57' E 136°41'0 0.0
2018-Feb-12 21:59N 34°57' E 136°41'0 0.0
2018-Feb-12 21:30N 34°57' E 136°41'0 0.0
2018-Feb-12 21:00N 34°57' E 136°41'0 0.0
2018-Feb-12 20:30N 34°57' E 136°41'0 0.0
2018-Feb-12 20:00N 34°57' E 136°41'0 0.0
2018-Feb-12 19:30N 34°57' E 136°41'0 0.0
2018-Feb-12 19:00N 34°57' E 136°41'0 0.1
2018-Feb-12 18:30N 34°57' E 136°41'0 0.1
2018-Feb-12 18:00N 34°57' E 136°41'0 0.0
2018-Feb-12 17:30N 34°57' E 136°41'0 0.0
2018-Feb-12 17:00N 34°57' E 136°41'0 0.0
2018-Feb-12 16:30N 34°57' E 136°41'0 0.0
2018-Feb-12 16:00N 34°57' E 136°41'0 0.0
2018-Feb-12 15:30N 34°57' E 136°41'0 0.0
2018-Feb-12 14:59N 34°57' E 136°41'0 0.0
2018-Feb-12 14:30N 34°57' E 136°41'0 0.1
2018-Feb-12 14:00N 34°57' E 136°41'0 0.0
2018-Feb-12 13:30N 34°57' E 136°41'0 0.0
2018-Feb-12 13:00N 34°57' E 136°41'0 0.1
2018-Feb-12 12:30N 34°57' E 136°41'0 0.2
2018-Feb-12 12:00N 34°57' E 136°41'0 0.1
2018-Feb-12 11:30N 34°57' E 136°41'0 0.1
2018-Feb-12 11:00N 34°57' E 136°41'0 0.0
2018-Feb-12 10:30N 34°57' E 136°41'2 3.7
2018-Feb-12 10:00N 34°58' E 136°39'0 0.1
2018-Feb-12 09:30N 34°58' E 136°39'0 0.0
2018-Feb-12 09:00N 34°58' E 136°39'0 0.0
2018-Feb-12 08:30N 34°58' E 136°39'0 0.0
2018-Feb-12 07:59N 34°58' E 136°39'0 0.0
2018-Feb-12 07:30N 34°58' E 136°39'0 0.0
2018-Feb-12 07:00N 34°58' E 136°39'  

Dump ship's entire track history